createdAt,value
2022-09-07T06:19:11.403Z,59.20
2022-09-07T06:34:16.213Z,57.90
2022-09-07T06:49:20.895Z,56.30
2022-09-07T07:04:25.646Z,54.80
2022-09-07T07:19:30.339Z,54.10
2022-09-07T07:34:35.006Z,53.20
2022-09-07T07:49:39.730Z,52.30
2022-09-07T08:04:44.630Z,51.80
2022-09-07T08:19:49.152Z,51.50
2022-09-07T08:34:53.663Z,51.20
2022-09-07T08:50:05.152Z,51.00
2022-09-07T09:05:18.929Z,51.10
2022-09-07T09:20:27.860Z,51.70
2022-09-07T09:35:35.515Z,51.10
2022-09-07T10:06:07.692Z,51.40
2022-09-07T10:21:24.235Z,51.80
2022-09-07T10:36:35.914Z,51.90
2022-09-07T10:51:47.595Z,51.60
2022-09-07T11:06:56.375Z,51.70
2022-09-07T11:22:11.792Z,51.40
2022-09-07T11:37:21.541Z,51.20
2022-09-07T11:52:35.412Z,51.20
2022-09-07T12:08:05.436Z,51.10
2022-09-07T12:23:23.198Z,50.90
2022-09-07T12:39:09.127Z,50.30
2022-09-07T12:54:20.261Z,49.90
2022-09-07T13:09:37.372Z,48.20
2022-09-07T13:24:53.247Z,47.80
2022-09-07T13:39:59.793Z,47.40
2022-09-07T13:55:14.219Z,47.40
2022-09-07T14:10:21.297Z,47.60
2022-09-07T14:25:26.290Z,46.50
2022-09-07T14:40:31.202Z,46.60
2022-09-07T14:55:38.412Z,45.80
2022-09-07T15:11:32.883Z,46.10
2022-09-07T15:27:02.040Z,46.10
2022-09-07T15:41:35.195Z,45.80
2022-09-07T15:56:40.006Z,45.50
2022-09-07T16:11:44.816Z,45.30
2022-09-07T16:26:49.438Z,45.00
2022-09-07T16:41:54.638Z,45.30
2022-09-07T16:56:59.130Z,45.10
2022-09-07T17:12:04.607Z,44.20
2022-09-07T17:27:09.102Z,43.70
2022-09-07T17:42:13.634Z,43.60
2022-09-07T17:57:18.141Z,43.60
2022-09-07T18:12:22.703Z,43.70
